createdAt,value
2023-03-29T00:02:58.092Z,101078.50
2023-03-29T00:06:05.074Z,101089.50
2023-03-29T00:09:08.505Z,101086.09
2023-03-29T00:12:11.964Z,101083.06
2023-03-29T00:15:14.914Z,101083.97
2023-03-29T00:18:17.090Z,101082.59
2023-03-29T00:21:19.803Z,101083.78
2023-03-29T00:24:23.995Z,101092.88
2023-03-29T00:27:27.111Z,101087.34
2023-03-29T00:30:29.368Z,101091.88
2023-03-29T00:33:34.484Z,101103.38
2023-03-29T00:36:36.597Z,101093.75
2023-03-29T00:39:42.797Z,101104.75
2023-03-29T00:42:46.591Z,101102.59
2023-03-29T00:45:50.851Z,101103.25
2023-03-29T00:48:58.938Z,101104.94
2023-03-29T00:52:01.296Z,101107.34
2023-03-29T00:55:11.054Z,101114.28
2023-03-29T00:58:20.465Z,101115.47
2023-03-29T01:01:34.529Z,101119.88
2023-03-29T01:04:53.883Z,101124.13
2023-03-29T01:08:25.897Z,101126.47
2023-03-29T01:11:34.908Z,101119.94
2023-03-29T01:15:00.024Z,101117.88
2023-03-29T01:18:02.386Z,101116.69
2023-03-29T01:21:29.803Z,101122.31
2023-03-29T01:25:12.098Z,101121.94
2023-03-29T01:28:23.402Z,101120.59
2023-03-29T01:31:34.862Z,101124.31
2023-03-29T01:34:43.020Z,101124.31
2023-03-29T01:38:17.373Z,101124.31
2023-03-29T01:41:20.281Z,101127.34
2023-03-29T01:44:49.688Z,101128.53
2023-03-29T01:48:22.792Z,101129.91
2023-03-29T01:51:42.344Z,101136.97
2023-03-29T01:54:56.252Z,101131.22
2023-03-29T01:58:00.951Z,101132.94
2023-03-29T02:01:11.077Z,101137.03
2023-03-29T02:04:20.396Z,101131.75
2023-03-29T02:07:30.888Z,101133.81
2023-03-29T02:10:35.374Z,101124.34
2023-03-29T02:13:38.600Z,101134.13
2023-03-29T02:16:41.076Z,101132.13
2023-03-29T02:19:46.309Z,101127.72
2023-03-29T02:23:09.601Z,101138.88
2023-03-29T02:26:14.776Z,101150.34
2023-03-29T02:29:17.312Z,101149.34
2023-03-29T02:32:33.918Z,101149.16
2023-03-29T02:35:45.461Z,101153.72
2023-03-29T02:38:47.851Z,101161.84
2023-03-29T02:41:51.488Z,101162.88
2023-03-29T02:44:57.912Z,101164.06
2023-03-29T02:48:08.693Z,101154.94
2023-03-29T02:51:20.225Z,101162.22
2023-03-29T02:54:26.738Z,101170.13
2023-03-29T02:57:30.639Z,101170.97
2023-03-29T03:00:34.310Z,101171.31
2023-03-29T03:03:36.809Z,101169.78
2023-03-29T03:06:40.879Z,101173.03
2023-03-29T03:09:45.826Z,101185.16
2023-03-29T03:12:48.244Z,101189.06
2023-03-29T03:15:51.096Z,101193.94
2023-03-29T03:18:55.690Z,101188.69
2023-03-29T03:21:58.603Z,101197.13
2023-03-29T03:25:00.744Z,101194.81
2023-03-29T03:28:03.100Z,101197.13
2023-03-29T03:31:05.968Z,101202.53
2023-03-29T03:34:28.354Z,101201.22
2023-03-29T03:37:39.490Z,101197.31
2023-03-29T03:40:42.767Z,101204.41
2023-03-29T03:43:48.927Z,101197.50
2023-03-29T03:46:53.580Z,101200.22
2023-03-29T03:49:56.716Z,101203.25
2023-03-29T03:53:00.989Z,101208.97
2023-03-29T03:56:14.106Z,101217.09
2023-03-29T03:59:34.287Z,101207.47
2023-03-29T04:02:43.746Z,101210.66
2023-03-29T04:05:47.357Z,101218.25
2023-03-29T04:08:50.802Z,101225.53
2023-03-29T04:12:06.477Z,101230.94
2023-03-29T04:15:11.670Z,101223.84
2023-03-29T04:18:26.511Z,101243.44
2023-03-29T04:21:34.125Z,101244.13
2023-03-29T04:24:36.761Z,101242.41
2023-03-29T04:28:03.676Z,101239.69
2023-03-29T04:31:18.111Z,101242.91
2023-03-29T04:34:27.279Z,101251.38
2023-03-29T04:37:31.967Z,101248.50
2023-03-29T04:40:38.505Z,101250.88
2023-03-29T04:43:48.558Z,101258.47
2023-03-29T04:47:00.997Z,101258.47
2023-03-29T04:50:26.610Z,101272.81
2023-03-29T04:53:28.976Z,101274.84
2023-03-29T04:56:36.887Z,101271.66
2023-03-29T05:00:15.386Z,101272.84
2023-03-29T05:03:45.800Z,101279.75
2023-03-29T05:06:58.865Z,101291.56
2023-03-29T05:10:02.086Z,101300.03
2023-03-29T05:13:04.478Z,101296.81
2023-03-29T05:16:08.057Z,101298.34
2023-03-29T05:19:11.687Z,101301.22
2023-03-29T05:22:17.757Z,101299.53
2023-03-29T05:25:21.159Z,101305.44
2023-03-29T05:28:23.376Z,101310.50
2023-03-29T05:31:26.773Z,101295.97
2023-03-29T05:34:32.125Z,101302.56
2023-03-29T05:37:37.640Z,101300.69
2023-03-29T05:40:41.578Z,101305.44
2023-03-29T05:44:06.561Z,101313.53
2023-03-29T05:47:10.128Z,101309.72
2023-03-29T05:50:12.616Z,101304.41
2023-03-29T05:53:16.531Z,101303.94
2023-03-29T05:56:19.224Z,101308.44
2023-03-29T05:59:21.349Z,101300.13
2023-03-29T06:02:24.950Z,101315.19
2023-03-29T06:05:29.809Z,101317.47
2023-03-29T06:08:35.338Z,101318.19
2023-03-29T06:11:59.072Z,101319.59
2023-03-29T06:15:25.880Z,101325.25
2023-03-29T06:18:35.456Z,101355.09
2023-03-29T06:21:39.111Z,101333.88
2023-03-29T06:24:43.732Z,101350.81
2023-03-29T06:27:56.613Z,101346.09
2023-03-29T06:31:03.412Z,101344.53
2023-03-29T06:34:12.174Z,101342.94
2023-03-29T06:37:49.863Z,101347.25
2023-03-29T06:41:15.086Z,101337.22
2023-03-29T06:44:36.400Z,101335.72
2023-03-29T06:47:46.437Z,101358.03
2023-03-29T06:50:49.534Z,101363.81
2023-03-29T06:53:52.618Z,101352.75
2023-03-29T06:56:57.739Z,101361.47
2023-03-29T07:00:01.647Z,101348.97
2023-03-29T07:03:25.851Z,101353.00
2023-03-29T07:06:30.456Z,101366.31
2023-03-29T07:09:33.697Z,101369.00
2023-03-29T07:13:03.488Z,101381.31
2023-03-29T07:16:06.884Z,101383.16
2023-03-29T07:19:27.503Z,101381.19
2023-03-29T07:22:29.641Z,101382.06
2023-03-29T07:25:36.515Z,101390.75
2023-03-29T07:28:39.967Z,101382.31
2023-03-29T07:31:52.375Z,101386.47
2023-03-29T07:35:21.324Z,101397.97
2023-03-29T07:38:23.950Z,101386.59
2023-03-29T07:41:49.783Z,101394.78
2023-03-29T07:44:52.104Z,101384.84
2023-03-29T07:47:58.721Z,101391.47
2023-03-29T07:51:08.348Z,101386.19
2023-03-29T07:54:39.684Z,101388.03
2023-03-29T07:58:05.866Z,101395.88
2023-03-29T08:01:11.063Z,101389.97
2023-03-29T08:04:36.946Z,101401.44
2023-03-29T08:07:47.922Z,101402.53
2023-03-29T08:11:09.225Z,101399.59
2023-03-29T08:14:35.226Z,101403.00
2023-03-29T08:17:47.774Z,101409.25
2023-03-29T08:20:51.273Z,101406.38
2023-03-29T08:23:53.531Z,101401.97
2023-03-29T08:27:14.854Z,101404.72
2023-03-29T08:30:17.493Z,101398.94
2023-03-29T08:33:20.546Z,101400.00
2023-03-29T08:36:29.914Z,101401.25
2023-03-29T08:39:39.026Z,101394.75
2023-03-29T08:43:09.372Z,101411.25
2023-03-29T08:47:00.937Z,101410.78
2023-03-29T08:50:15.085Z,101398.09
2023-03-29T08:53:31.382Z,101394.47
2023-03-29T08:56:47.647Z,101395.09
2023-03-29T09:00:05.603Z,101396.88
2023-03-29T09:03:23.241Z,101408.16
2023-03-29T09:06:28.807Z,101419.78
2023-03-29T09:09:42.052Z,101427.28
2023-03-29T09:13:11.529Z,101430.28
2023-03-29T09:16:20.173Z,101430.72
2023-03-29T09:19:36.796Z,101442.22
2023-03-29T09:23:16.471Z,101433.28
2023-03-29T09:27:10.314Z,101434.84
2023-03-29T09:30:26.387Z,101447.75
2023-03-29T09:33:44.519Z,101433.34
2023-03-29T09:37:10.051Z,101434.91
2023-03-29T09:40:22.816Z,101432.59
2023-03-29T09:43:53.467Z,101431.63
2023-03-29T09:47:07.580Z,101441.44
2023-03-29T09:50:34.333Z,101433.44
2023-03-29T09:53:41.564Z,101448.63
2023-03-29T09:56:56.120Z,101448.97
2023-03-29T10:00:04.342Z,101461.56
2023-03-29T10:03:21.694Z,101466.69
2023-03-29T10:06:35.912Z,101470.03
2023-03-29T10:09:38.438Z,101461.56
2023-03-29T10:12:54.392Z,101457.56
2023-03-29T10:16:02.428Z,101458.66
2023-03-29T10:19:25.112Z,101454.94
2023-03-29T10:22:37.860Z,101457.72
2023-03-29T10:25:43.378Z,101455.50
2023-03-29T10:28:55.299Z,101471.44
2023-03-29T10:31:57.408Z,101466.13
2023-03-29T10:35:23.513Z,101458.13
2023-03-29T10:38:41.855Z,101464.13
2023-03-29T10:41:44.905Z,101459.31
2023-03-29T10:45:00.416Z,101450.19
2023-03-29T10:48:07.003Z,101441.13
2023-03-29T10:51:09.097Z,101434.63
2023-03-29T10:54:15.963Z,101447.47
2023-03-29T10:57:55.502Z,101446.78
2023-03-29T11:00:58.505Z,101436.38
2023-03-29T11:04:28.676Z,101455.22
2023-03-29T11:07:38.887Z,101476.31
2023-03-29T11:11:10.033Z,101464.56
2023-03-29T11:14:50.235Z,101456.59
2023-03-29T11:17:55.153Z,101453.66
2023-03-29T11:21:34.462Z,101455.00
2023-03-29T11:24:50.588Z,101440.91
2023-03-29T11:28:50.832Z,101431.13
2023-03-29T11:32:19.543Z,101431.78
2023-03-29T11:35:53.681Z,101431.84
2023-03-29T11:39:22.516Z,101447.81
2023-03-29T11:42:32.310Z,101459.69
2023-03-29T11:45:52.897Z,101463.78
2023-03-29T11:49:06.922Z,101452.72
2023-03-29T11:52:29.808Z,101441.63
2023-03-29T11:59:58.008Z,101432.34
2023-03-29T12:03:10.614Z,101434.00
2023-03-29T12:06:41.116Z,101413.13
2023-03-29T12:09:53.422Z,101424.66
2023-03-29T12:13:01.916Z,101432.00
2023-03-29T12:16:30.823Z,101444.53
2023-03-29T12:19:43.572Z,101433.75
2023-03-29T12:22:50.998Z,101451.03
2023-03-29T12:26:12.100Z,101448.13
2023-03-29T12:29:54.429Z,101448.09
2023-03-29T12:33:42.641Z,101446.47
2023-03-29T12:37:12.713Z,101443.81
2023-03-29T12:40:42.763Z,101447.19
2023-03-29T12:44:04.913Z,101437.63
2023-03-29T12:47:32.510Z,101433.13
2023-03-29T12:50:53.180Z,101434.63
2023-03-29T12:54:03.465Z,101434.19
2023-03-29T13:01:06.354Z,101430.63
2023-03-29T13:04:20.957Z,101440.25
2023-03-29T13:07:23.180Z,101434.84
2023-03-29T13:10:42.800Z,101426.09
2023-03-29T13:13:45.377Z,101441.97
2023-03-29T13:16:50.197Z,101435.28
2023-03-29T13:20:13.680Z,101433.16
2023-03-29T13:23:34.641Z,101434.72
2023-03-29T13:26:56.629Z,101429.34
2023-03-29T13:30:38.024Z,101426.19
2023-03-29T13:33:57.288Z,101435.41
2023-03-29T13:37:19.197Z,101443.03
2023-03-29T13:40:47.169Z,101443.97
2023-03-29T13:43:54.397Z,101436.47
2023-03-29T13:47:24.571Z,101437.03
2023-03-29T13:50:51.925Z,101439.63
2023-03-29T13:54:42.917Z,101437.03
2023-03-29T13:58:40.744Z,101441.41
2023-03-29T14:01:47.748Z,101446.06
2023-03-29T14:04:53.505Z,101439.47
2023-03-29T14:07:57.933Z,101448.91
2023-03-29T14:11:05.590Z,101449.03
2023-03-29T14:14:10.786Z,101453.09
2023-03-29T14:17:23.129Z,101460.69
2023-03-29T14:20:26.176Z,101447.72
2023-03-29T14:23:31.822Z,101462.25
2023-03-29T14:26:36.186Z,101467.00
2023-03-29T14:29:39.037Z,101463.31
2023-03-29T14:32:41.705Z,101470.50
2023-03-29T14:35:47.436Z,101467.22
2023-03-29T14:39:09.716Z,101463.16
2023-03-29T14:42:21.007Z,101470.28
2023-03-29T14:45:23.948Z,101471.75
2023-03-29T14:48:29.050Z,101466.56
2023-03-29T14:51:31.826Z,101475.81
2023-03-29T14:54:36.473Z,101466.72
2023-03-29T14:58:16.533Z,101469.28
2023-03-29T15:01:24.005Z,101468.84
2023-03-29T15:04:35.034Z,101469.03
2023-03-29T15:07:42.196Z,101459.78
2023-03-29T15:10:46.677Z,101467.75
2023-03-29T15:14:10.955Z,101467.91
2023-03-29T15:17:50.514Z,101451.44
2023-03-29T15:20:54.922Z,101460.59
2023-03-29T15:24:58.102Z,101466.25
2023-03-29T15:28:04.866Z,101464.66
2023-03-29T15:31:16.007Z,101469.53
2023-03-29T15:34:31.178Z,101472.13
2023-03-29T15:37:36.227Z,101465.88
2023-03-29T15:40:38.564Z,101472.94
2023-03-29T15:43:43.522Z,101482.13
2023-03-29T15:46:47.330Z,101475.44
2023-03-29T15:49:52.169Z,101473.84
2023-03-29T15:53:14.187Z,101483.66
2023-03-29T15:56:23.111Z,101474.53
2023-03-29T15:59:26.587Z,101476.56
2023-03-29T16:02:29.533Z,101479.63
2023-03-29T16:05:32.154Z,101478.69
2023-03-29T16:08:34.245Z,101479.56
2023-03-29T16:11:39.416Z,101483.75
2023-03-29T16:14:44.389Z,101488.50
2023-03-29T16:17:47.932Z,101497.44
2023-03-29T16:20:53.168Z,101501.66
2023-03-29T16:23:59.721Z,101496.72
2023-03-29T16:27:04.248Z,101509.91
2023-03-29T16:30:10.930Z,101505.28
2023-03-29T16:33:17.669Z,101511.41
2023-03-29T16:36:19.939Z,101511.25
2023-03-29T16:39:24.891Z,101515.13
2023-03-29T16:42:28.165Z,101510.06
2023-03-29T16:45:31.058Z,101518.44
2023-03-29T16:48:33.347Z,101520.66
2023-03-29T16:51:37.566Z,101529.91
2023-03-29T16:54:39.682Z,101534.66
2023-03-29T16:57:42.800Z,101533.81
2023-03-29T17:04:10.124Z,101533.84
2023-03-29T17:07:12.596Z,101535.44
2023-03-29T17:10:14.842Z,101540.53
2023-03-29T17:13:17.404Z,101549.75
2023-03-29T17:16:20.446Z,101558.41
2023-03-29T17:19:22.924Z,101563.78
2023-03-29T17:22:25.412Z,101565.41
2023-03-29T17:25:31.751Z,101573.09
2023-03-29T17:28:34.707Z,101567.09
2023-03-29T17:31:47.042Z,101573.22
2023-03-29T17:34:49.737Z,101573.88
2023-03-29T17:37:53.418Z,101576.41
2023-03-29T17:40:56.194Z,101582.75
2023-03-29T17:43:58.510Z,101587.28
2023-03-29T17:47:03.787Z,101591.31
2023-03-29T17:50:08.302Z,101586.13
2023-03-29T17:53:10.452Z,101599.75
2023-03-29T17:56:15.448Z,101596.19
2023-03-29T17:59:18.666Z,101600.56
2023-03-29T18:02:25.018Z,101604.78
2023-03-29T18:05:29.532Z,101614.47
2023-03-29T18:08:36.125Z,101610.63
2023-03-29T18:11:41.585Z,101608.63
2023-03-29T18:14:47.877Z,101625.00
2023-03-29T18:17:50.199Z,101624.53
2023-03-29T18:20:52.903Z,101629.66
2023-03-29T18:23:57.032Z,101629.03
2023-03-29T18:27:00.142Z,101629.38
2023-03-29T18:30:02.674Z,101635.00
2023-03-29T18:33:05.361Z,101620.66
2023-03-29T18:36:12.616Z,101635.44
2023-03-29T18:39:20.728Z,101625.88
2023-03-29T18:42:23.531Z,101641.34
2023-03-29T18:45:25.893Z,101642.53
2023-03-29T18:48:27.985Z,101651.69
2023-03-29T18:51:31.246Z,101661.56
2023-03-29T18:54:36.660Z,101659.78
2023-03-29T18:57:39.302Z,101657.72
2023-03-29T19:00:43.673Z,101656.78
2023-03-29T19:03:46.017Z,101655.38
2023-03-29T19:06:49.538Z,101652.56
2023-03-29T19:09:51.618Z,101659.50
2023-03-29T19:12:54.073Z,101648.88
2023-03-29T19:15:59.404Z,101652.63
2023-03-29T19:19:02.735Z,101651.22
2023-03-29T19:22:04.930Z,101650.31
2023-03-29T19:25:07.779Z,101648.84
2023-03-29T19:28:10.548Z,101657.72
2023-03-29T19:31:12.780Z,101666.78
2023-03-29T19:34:15.805Z,101658.09
2023-03-29T19:37:19.518Z,101660.81
2023-03-29T19:40:23.808Z,101654.22
2023-03-29T19:43:26.074Z,101662.97
2023-03-29T19:46:29.381Z,101662.66
2023-03-29T19:49:32.560Z,101659.53
2023-03-29T19:52:35.677Z,101658.34
2023-03-29T19:55:39.777Z,101658.16
2023-03-29T19:58:42.176Z,101664.31
2023-03-29T20:01:51.179Z,101668.75
2023-03-29T20:04:55.216Z,101667.56
2023-03-29T20:07:59.413Z,101655.72
2023-03-29T20:11:10.604Z,101653.03
2023-03-29T20:14:13.241Z,101661.53
2023-03-29T20:17:16.674Z,101651.50
2023-03-29T20:20:19.350Z,101662.88
2023-03-29T20:23:23.942Z,101656.94
2023-03-29T20:26:29.248Z,101648.16
2023-03-29T20:29:33.357Z,101647.81
2023-03-29T20:32:38.825Z,101651.53
2023-03-29T20:35:46.925Z,101647.31
2023-03-29T20:38:51.702Z,101646.13
2023-03-29T20:41:54.391Z,101646.28
2023-03-29T20:44:57.713Z,101656.75
2023-03-29T20:48:03.042Z,101649.19
2023-03-29T20:51:10.420Z,101644.06
2023-03-29T20:54:12.483Z,101650.03
2023-03-29T20:57:17.288Z,101652.03
2023-03-29T21:00:20.863Z,101646.25
2023-03-29T21:03:23.079Z,101643.91
2023-03-29T21:06:25.224Z,101648.66
2023-03-29T21:09:27.225Z,101645.94
2023-03-29T21:12:29.669Z,101643.72
2023-03-29T21:15:32.122Z,101647.63
2023-03-29T21:18:37.339Z,101643.91
2023-03-29T21:21:41.756Z,101640.84
2023-03-29T21:24:44.029Z,101634.56
2023-03-29T21:27:48.938Z,101629.69
2023-03-29T21:30:53.768Z,101630.34
2023-03-29T21:33:58.284Z,101635.44
2023-03-29T21:37:00.631Z,101638.16
2023-03-29T21:40:06.185Z,101630.88
2023-03-29T21:43:08.959Z,101636.81
2023-03-29T21:46:14.985Z,101645.91
2023-03-29T21:49:17.433Z,101634.75
2023-03-29T21:53:00.055Z,101640.16
2023-03-29T21:56:02.320Z,101635.75
2023-03-29T21:59:04.474Z,101642.19
2023-03-29T22:02:07.005Z,101631.88
2023-03-29T22:05:09.296Z,101636.13
2023-03-29T22:08:11.859Z,101630.34
2023-03-29T22:11:19.014Z,101627.63
2023-03-29T22:14:22.175Z,101627.63
2023-03-29T22:17:31.231Z,101637.94
2023-03-29T22:20:34.460Z,101625.91
2023-03-29T22:23:46.689Z,101626.22
2023-03-29T22:26:48.788Z,101623.06
2023-03-29T22:29:50.904Z,101626.78
2023-03-29T22:32:53.090Z,101623.06
2023-03-29T22:35:55.244Z,101629.16
2023-03-29T22:39:25.152Z,101628.97
2023-03-29T22:42:27.338Z,101628.28
2023-03-29T22:45:29.410Z,101623.91
2023-03-29T22:48:31.623Z,101621.69
2023-03-29T22:51:34.720Z,101615.75
2023-03-29T22:54:36.892Z,101621.66
2023-03-29T22:57:41.771Z,101619.13
2023-03-29T23:00:47.112Z,101631.31
2023-03-29T23:03:52.149Z,101629.44
2023-03-29T23:06:54.406Z,101627.41
2023-03-29T23:09:56.651Z,101621.97
2023-03-29T23:13:09.007Z,101625.69
2023-03-29T23:16:11.247Z,101622.50
2023-03-29T23:19:13.772Z,101621.47
2023-03-29T23:22:16.719Z,101626.00
2023-03-29T23:25:18.791Z,101626.34
2023-03-29T23:28:23.859Z,101627.03
2023-03-29T23:31:26.051Z,101630.72
2023-03-29T23:34:28.221Z,101628.38
2023-03-29T23:37:30.676Z,101624.97
2023-03-29T23:40:33.517Z,101623.63
2023-03-29T23:43:40.702Z,101627.97
2023-03-29T23:46:43.947Z,101633.69
2023-03-29T23:49:47.044Z,101624.75
2023-03-29T23:52:51.779Z,101625.19
2023-03-29T23:56:00.599Z,101627.38
2023-03-29T23:59:03.522Z,101626.50
